Time;durP1;ratioP1;P1;durP2;ratioP2;P2;SDS_P1;SDS_P2;PMS_P1;PMS_P2;Temp;Humidity;BMP_temperature;BMP_pressure;BME280_temperature;BME280_humidity;BME280_pressure;Samples;Min_cycle;Max_cycle;Signal;HPM_P1;HPM_P2
2024/02/04 00:01:51;;;;;;;0.85;0.80;;;9.20;99.90;;;;;;5030865;28;20498;-86
2024/02/04 00:04:16;;;;;;;1.27;1.05;;;9.20;99.90;;;;;;5033883;28;20091;-87
2024/02/04 00:06:42;;;;;;;1.13;1.00;;;9.20;99.90;;;;;;5033985;28;20052;-85
2024/02/04 00:09:08;;;;;;;1.70;0.90;;;9.20;99.90;;;;;;5038830;28;20040;-87
2024/02/04 00:11:34;;;;;;;2.25;0.93;;;9.20;99.90;;;;;;5036644;28;20037;-87
2024/02/04 00:14:00;;;;;;;3.28;1.00;;;9.20;99.90;;;;;;5043473;28;20022;-87
2024/02/04 00:16:25;;;;;;;0.98;0.90;;;9.20;99.90;;;;;;5041370;28;20111;-86
2024/02/04 00:18:51;;;;;;;0.90;0.90;;;9.20;99.90;;;;;;5038850;28;20032;-86
2024/02/04 00:21:16;;;;;;;3.00;0.80;;;9.20;99.90;;;;;;5027384;28;20025;-86
2024/02/04 00:23:42;;;;;;;1.00;0.90;;;9.20;99.90;;;;;;5039734;28;20654;-86
2024/02/04 00:26:08;;;;;;;3.85;1.00;;;9.20;99.90;;;;;;5032125;28;20029;-87
2024/02/04 00:28:33;;;;;;;1.05;0.93;;;9.20;99.90;;;;;;5039549;28;20060;-85
2024/02/04 00:30:59;;;;;;;0.60;0.60;;;9.20;99.90;;;;;;5033099;28;20510;-86
2024/02/04 00:33:25;;;;;;;1.00;0.90;;;9.20;99.90;;;;;;5039854;28;20040;-87
2024/02/04 00:35:51;;;;;;;1.65;0.93;;;9.20;99.90;;;;;;5036359;28;20112;-85
2024/02/04 00:38:16;;;;;;;1.98;1.02;;;9.20;99.90;;;;;;5033434;28;20025;-86
2024/02/04 00:40:42;;;;;;;1.23;1.08;;;9.20;99.90;;;;;;5033052;28;20372;-86
2024/02/04 00:43:07;;;;;;;0.80;0.80;;;9.20;99.90;;;;;;5033877;28;20376;-85
2024/02/04 00:45:33;;;;;;;1.35;0.90;;;9.20;99.90;;;;;;5041346;28;20025;-87
2024/02/04 00:47:58;;;;;;;2.72;0.80;;;9.20;99.90;;;;;;5040885;28;20026;-85
2024/02/04 00:50:24;;;;;;;1.42;0.88;;;9.20;99.90;;;;;;5037336;28;20135;-88
2024/02/04 00:52:50;;;;;;;0.90;0.90;;;9.20;99.90;;;;;;5032660;28;20072;-86
2024/02/04 00:55:15;;;;;;;0.90;0.88;;;9.20;99.90;;;;;;5034393;28;20030;-86
2024/02/04 00:57:41;;;;;;;1.10;1.00;;;9.20;99.90;;;;;;5038632;28;20029;-85
2024/02/04 01:00:07;;;;;;;2.40;0.93;;;9.20;99.90;;;;;;5027428;28;20040;-87
2024/02/04 01:02:33;;;;;;;2.50;1.42;;;9.20;99.90;;;;;;5039788;28;20051;-85
2024/02/04 01:04:59;;;;;;;1.67;0.82;;;9.10;99.90;;;;;;5037552;28;20083;-86
2024/02/04 01:07:25;;;;;;;1.75;1.20;;;9.20;99.90;;;;;;5036690;28;20025;-87
2024/02/04 01:09:50;;;;;;;1.02;0.90;;;9.10;99.90;;;;;;5034317;28;20057;-86
2024/02/04 01:12:16;;;;;;;2.22;1.05;;;9.20;99.90;;;;;;5038320;28;20112;-86
2024/02/04 01:14:42;;;;;;;1.92;1.02;;;9.10;99.90;;;;;;5037403;28;20040;-86
2024/02/04 01:17:08;;;;;;;1.20;1.10;;;9.10;99.90;;;;;;5036031;28;20558;-85
2024/02/04 01:19:33;;;;;;;2.50;1.10;;;9.10;99.90;;;;;;5030271;28;20033;-87
2024/02/04 01:21:59;;;;;;;2.40;1.27;;;9.10;99.90;;;;;;5036877;28;20065;-86
2024/02/04 01:24:25;;;;;;;1.40;1.30;;;9.10;99.90;;;;;;5040897;28;20021;-88
2024/02/04 01:26:50;;;;;;;1.98;1.30;;;9.10;99.90;;;;;;5027222;28;20060;-87
2024/02/04 01:29:16;;;;;;;1.92;1.20;;;9.10;99.90;;;;;;5041598;28;20021;-87
2024/02/04 01:31:42;;;;;;;1.80;1.27;;;9.10;99.90;;;;;;5038250;28;20026;-86
2024/02/04 01:34:07;;;;;;;1.10;0.98;;;9.10;99.90;;;;;;5035907;28;20029;-85
2024/02/04 01:36:33;;;;;;;1.85;1.23;;;9.10;99.90;;;;;;5037805;28;20391;-86
2024/02/04 01:38:59;;;;;;;1.55;1.35;;;9.10;99.90;;;;;;5038076;28;20411;-85
2024/02/04 01:41:27;;;;;;;2.83;1.63;;;9.10;99.90;;;;;;5038470;28;20021;-87
2024/02/04 01:43:53;;;;;;;1.58;1.13;;;9.10;99.90;;;;;;5040956;28;20043;-86
2024/02/04 01:46:18;;;;;;;1.52;1.35;;;9.10;99.90;;;;;;5042258;28;20487;-85
2024/02/04 01:48:44;;;;;;;1.92;1.20;;;9.10;99.90;;;;;;5043984;28;20386;-86
2024/02/04 01:51:11;;;;;;;2.13;1.52;;;9.10;99.90;;;;;;5039271;28;20017;-85
2024/02/04 01:53:38;;;;;;;2.88;0.95;;;9.10;99.90;;;;;;5039530;28;20017;-86
2024/02/04 01:56:05;;;;;;;4.25;1.40;;;9.10;99.90;;;;;;5036884;28;20502;-86
2024/02/04 01:58:31;;;;;;;1.52;1.35;;;9.10;99.90;;;;;;5039738;28;20100;-87
2024/02/04 02:00:57;;;;;;;4.05;1.10;;;9.10;99.90;;;;;;5040561;28;20116;-86
2024/02/04 02:03:24;;;;;;;3.53;1.38;;;9.10;99.90;;;;;;5043759;28;20078;-85
2024/02/04 02:05:50;;;;;;;2.97;1.33;;;9.10;99.90;;;;;;5039763;28;20024;-86
2024/02/04 02:08:16;;;;;;;2.78;1.67;;;9.10;99.90;;;;;;5041788;28;20017;-86
2024/02/04 02:10:46;;;;;;;2.67;1.80;;;9.10;99.90;;;;;;5046024;28;20022;-87
2024/02/04 02:13:22;;;;;;;;;;;9.00;99.90;;;;;;5044620;28;20025;-86
2024/02/04 02:16:02;;;;;;;2.95;1.95;;;9.00;99.90;;;;;;5042437;28;20473;-86
2024/02/04 02:18:43;;;;;;;5.22;2.47;;;9.10;99.90;;;;;;5052306;28;20017;-86
2024/02/04 02:21:24;;;;;;;3.97;2.05;;;9.10;99.90;;;;;;5033003;28;20025;-85
2024/02/04 02:24:14;;;;;;;2.15;1.80;;;9.00;99.90;;;;;;5044454;28;20014;-88
2024/02/04 02:26:40;;;;;;;4.75;2.47;;;9.10;99.90;;;;;;5042007;28;20037;-85
2024/02/04 02:29:08;;;;;;;3.13;2.15;;;9.10;99.90;;;;;;5031056;28;20026;-85
2024/02/04 02:31:35;;;;;;;3.35;2.28;;;9.10;99.90;;;;;;5040267;28;20637;-87
2024/02/04 02:34:01;;;;;;;6.78;2.22;;;9.10;99.90;;;;;;5039285;28;20033;-86
2024/02/04 02:36:31;;;;;;;4.38;2.45;;;9.10;99.90;;;;;;5039700;28;20023;-87
2024/02/04 02:39:05;;;;;;;2.90;2.08;;;9.10;99.90;;;;;;5037097;28;20487;-87
2024/02/04 02:41:33;;;;;;;2.25;2.00;;;9.10;99.90;;;;;;5042302;28;20083;-86
2024/02/04 02:44:01;;;;;;;2.20;1.80;;;9.10;99.90;;;;;;5038217;28;20195;-86
2024/02/04 02:46:27;;;;;;;3.22;2.55;;;9.10;99.90;;;;;;5038151;28;20550;-87
2024/02/04 02:48:53;;;;;;;2.67;1.95;;;9.00;99.90;;;;;;5038806;28;20029;-85
2024/02/04 02:51:18;;;;;;;2.80;2.20;;;9.10;99.90;;;;;;5041160;28;20680;-86
2024/02/04 02:53:44;;;;;;;3.00;2.03;;;9.10;99.90;;;;;;5039427;28;20071;-85
2024/02/04 02:56:10;;;;;;;4.60;2.50;;;9.10;99.90;;;;;;5043707;28;20032;-86
2024/02/04 02:58:35;;;;;;;5.85;2.38;;;9.10;99.90;;;;;;5040230;28;20021;-87
2024/02/04 03:01:01;;;;;;;3.20;2.13;;;9.10;99.90;;;;;;5032491;28;20392;-85
2024/02/04 03:03:26;;;;;;;3.75;1.92;;;9.10;99.90;;;;;;5046244;28;20029;-86
2024/02/04 03:05:52;;;;;;;3.85;2.17;;;9.10;99.90;;;;;;5043613;28;20522;-87
2024/02/04 03:08:17;;;;;;;4.30;1.77;;;9.10;99.90;;;;;;5032168;28;20013;-86
2024/02/04 03:10:43;;;;;;;3.47;2.25;;;9.10;99.90;;;;;;5040674;28;20079;-87
2024/02/04 03:13:08;;;;;;;2.88;1.98;;;9.10;99.90;;;;;;5040795;28;20804;-86
2024/02/04 03:15:34;;;;;;;2.42;1.80;;;9.00;99.90;;;;;;5037370;28;20394;-85
2024/02/04 03:17:59;;;;;;;4.45;1.98;;;9.10;99.90;;;;;;5041686;28;20542;-86
2024/02/04 03:20:25;;;;;;;4.63;1.90;;;9.00;99.90;;;;;;5039383;28;20022;-87
2024/02/04 03:22:50;;;;;;;2.50;1.52;;;9.00;99.90;;;;;;5041710;28;20475;-87
2024/02/04 03:25:16;;;;;;;2.45;1.88;;;9.10;99.90;;;;;;5035289;28;20504;-86
2024/02/04 03:27:42;;;;;;;3.08;2.05;;;9.00;99.90;;;;;;5044114;28;20039;-86
2024/02/04 03:30:08;;;;;;;6.13;2.05;;;9.00;99.90;;;;;;5033885;28;20025;-87
2024/02/04 03:32:33;;;;;;;6.28;1.77;;;9.00;99.90;;;;;;5040201;28;20121;-86
2024/02/04 03:35:02;;;;;;;5.88;2.03;;;9.00;99.90;;;;;;5037097;28;20083;-86
2024/02/04 03:37:28;;;;;;;3.60;2.10;;;9.00;99.90;;;;;;5036556;28;20021;-88
2024/02/04 03:39:53;;;;;;;5.95;1.98;;;9.00;99.90;;;;;;5041355;28;20083;-86
2024/02/04 03:42:21;;;;;;;2.78;1.50;;;9.00;99.90;;;;;;5036185;28;20838;-86
2024/02/04 03:44:46;;;;;;;3.38;2.28;;;9.00;99.90;;;;;;5038058;28;20020;-85
2024/02/04 03:47:12;;;;;;;2.70;1.92;;;9.00;99.90;;;;;;5040544;28;20026;-86
2024/02/04 03:49:38;;;;;;;2.03;1.50;;;9.00;99.90;;;;;;5040247;28;20021;-85
2024/02/04 03:52:03;;;;;;;2.88;1.88;;;9.00;99.90;;;;;;5037825;28;20458;-87
2024/02/04 03:54:29;;;;;;;4.30;2.03;;;9.00;99.90;;;;;;5042781;28;20025;-86
2024/02/04 03:56:55;;;;;;;2.35;1.88;;;9.00;99.90;;;;;;5037486;28;20018;-88
2024/02/04 03:59:20;;;;;;;2.25;1.63;;;9.00;99.90;;;;;;5041458;28;20024;-86
2024/02/04 04:01:50;;;;;;;2.92;1.95;;;9.00;99.90;;;;;;5043430;28;20056;-86
2024/02/04 04:04:16;;;;;;;2.27;1.60;;;9.00;99.90;;;;;;5039280;28;20045;-86
2024/02/04 04:06:44;;;;;;;2.40;1.85;;;9.00;99.90;;;;;;5040532;28;20036;-86
2024/02/04 04:09:10;;;;;;;4.95;2.20;;;9.00;99.90;;;;;;5033630;28;20116;-85
2024/02/04 04:11:36;;;;;;;2.60;1.95;;;9.00;99.90;;;;;;5028361;28;20548;-86
2024/02/04 04:14:01;;;;;;;4.20;1.85;;;9.00;99.90;;;;;;5040101;28;20099;-86
2024/02/04 04:16:27;;;;;;;3.53;2.13;;;9.00;99.90;;;;;;5039567;28;20031;-86
2024/02/04 04:18:53;;;;;;;3.17;2.00;;;9.00;99.90;;;;;;5038932;28;20060;-86
2024/02/04 04:21:18;;;;;;;2.65;2.03;;;9.00;99.90;;;;;;5040441;28;20510;-85
2024/02/04 04:23:44;;;;;;;4.20;2.33;;;9.00;99.90;;;;;;5034324;28;20021;-86
2024/02/04 04:26:10;;;;;;;3.30;2.10;;;9.00;99.90;;;;;;5039296;28;20022;-86
2024/02/04 04:28:35;;;;;;;4.45;1.92;;;9.00;99.90;;;;;;5037329;28;20026;-86
2024/02/04 04:31:01;;;;;;;5.50;2.60;;;9.00;99.90;;;;;;5032355;28;20041;-85
2024/02/04 04:33:26;;;;;;;2.85;2.10;;;9.00;99.90;;;;;;5035168;28;20033;-87
2024/02/04 04:35:52;;;;;;;2.25;1.80;;;9.00;99.90;;;;;;5037627;28;20365;-86
2024/02/04 04:38:17;;;;;;;2.40;2.08;;;9.00;99.90;;;;;;5034873;28;20053;-87
2024/02/04 04:40:43;;;;;;;3.42;1.88;;;9.00;99.90;;;;;;5037566;28;20026;-86
2024/02/04 04:43:09;;;;;;;3.67;1.85;;;9.00;99.90;;;;;;5037378;28;20569;-87
2024/02/04 04:45:34;;;;;;;2.78;1.90;;;9.00;99.90;;;;;;5039220;28;20071;-86
2024/02/04 04:48:00;;;;;;;10.13;2.53;;;9.00;99.90;;;;;;5036874;28;20491;-86
2024/02/04 04:50:25;;;;;;;2.88;2.00;;;9.00;99.90;;;;;;5041910;28;20025;-86
2024/02/04 04:52:51;;;;;;;5.05;2.50;;;9.00;99.90;;;;;;5027997;28;20013;-85
2024/02/04 04:55:17;;;;;;;2.72;1.77;;;9.00;99.90;;;;;;5043978;28;20016;-85
2024/02/04 04:57:42;;;;;;;3.25;2.50;;;9.00;99.90;;;;;;5044025;28;20100;-86
2024/02/04 05:00:09;;;;;;;4.32;2.50;;;9.00;99.90;;;;;;5036753;28;20026;-85
2024/02/04 05:02:36;;;;;;;4.85;2.60;;;9.00;99.90;;;;;;5039964;28;20021;-86
2024/02/04 05:05:02;;;;;;;3.25;2.33;;;9.00;99.90;;;;;;5038977;28;20032;-86
2024/02/04 05:07:27;;;;;;;5.00;2.72;;;9.00;99.90;;;;;;5038412;28;20481;-86
2024/02/04 05:09:53;;;;;;;3.80;2.42;;;8.90;99.90;;;;;;5039945;28;20052;-86
2024/02/04 05:12:18;;;;;;;5.03;2.85;;;8.90;99.90;;;;;;5040981;28;20024;-87
2024/02/04 05:14:44;;;;;;;5.60;3.03;;;8.90;99.90;;;;;;5036650;28;20022;-86
2024/02/04 05:17:10;;;;;;;3.83;2.67;;;8.90;99.90;;;;;;5037861;28;20026;-85
2024/02/04 05:19:35;;;;;;;5.10;2.78;;;8.90;99.90;;;;;;5040577;28;20442;-85
2024/02/04 05:22:02;;;;;;;3.90;2.70;;;8.90;99.90;;;;;;5037612;28;20079;-85
2024/02/04 05:24:28;;;;;;;5.00;3.17;;;8.90;99.90;;;;;;5037776;28;20510;-86
2024/02/04 05:26:54;;;;;;;7.72;3.28;;;8.90;99.90;;;;;;5035355;28;20029;-86
2024/02/04 05:29:19;;;;;;;9.48;3.00;;;8.90;99.90;;;;;;5033272;28;20049;-86
2024/02/04 05:31:45;;;;;;;4.72;3.10;;;9.00;99.90;;;;;;5033866;28;20060;-85
2024/02/04 05:34:11;;;;;;;5.10;3.20;;;9.00;99.90;;;;;;5039178;28;20043;-84
2024/02/04 05:36:37;;;;;;;5.18;3.00;;;8.90;99.90;;;;;;5037849;28;20055;-85
2024/02/04 05:39:13;;;;;;;5.30;3.05;;;9.00;99.90;;;;;;5038181;28;20025;-86
2024/02/04 05:41:39;;;;;;;5.18;3.40;;;8.90;99.90;;;;;;5035948;28;20053;-85
2024/02/04 05:44:06;;;;;;;7.63;3.40;;;8.90;99.90;;;;;;5038423;28;20518;-85
2024/02/04 05:46:32;;;;;;;8.40;3.78;;;8.90;99.90;;;;;;5044405;28;20580;-87
2024/02/04 05:48:58;;;;;;;5.63;3.53;;;8.90;99.90;;;;;;5044851;28;20013;-85
2024/02/04 05:51:23;;;;;;;6.07;3.42;;;8.90;99.90;;;;;;5040322;28;20556;-85
2024/02/04 05:53:49;;;;;;;5.13;3.00;;;8.90;99.90;;;;;;5043791;28;20021;-86
2024/02/04 05:56:14;;;;;;;12.00;4.10;;;8.90;99.90;;;;;;5039360;28;20025;-86
2024/02/04 05:58:40;;;;;;;5.05;3.45;;;8.90;99.90;;;;;;5045983;28;20033;-86
2024/02/04 06:01:05;;;;;;;4.85;3.25;;;8.90;99.90;;;;;;5043072;28;20036;-86
2024/02/04 06:03:31;;;;;;;8.38;3.65;;;8.90;99.90;;;;;;5044882;28;20102;-86
2024/02/04 06:05:56;;;;;;;7.68;4.15;;;8.90;99.90;;;;;;5041421;28;20101;-86
2024/02/04 06:08:22;;;;;;;6.45;4.00;;;8.90;99.90;;;;;;5041510;28;20021;-87
2024/02/04 06:10:47;;;;;;;7.40;3.70;;;8.90;99.90;;;;;;5043590;28;20029;-87
2024/02/04 06:13:14;;;;;;;11.15;3.70;;;8.90;99.90;;;;;;5037426;28;20033;-86
2024/02/04 06:15:39;;;;;;;7.15;3.50;;;8.90;99.90;;;;;;5044397;28;20075;-86
2024/02/04 06:18:05;;;;;;;6.20;4.00;;;8.90;99.90;;;;;;5038917;28;20116;-87
2024/02/04 06:20:31;;;;;;;6.93;3.75;;;8.90;99.90;;;;;;5041841;28;20032;-87
2024/02/04 06:22:57;;;;;;;6.88;3.85;;;8.90;99.90;;;;;;5035972;28;20045;-87
2024/02/04 06:25:23;;;;;;;7.93;4.13;;;8.90;99.90;;;;;;5039818;28;20017;-85
2024/02/04 06:27:49;;;;;;;5.88;3.92;;;8.90;99.90;;;;;;5034573;28;20024;-86
2024/02/04 06:30:15;;;;;;;8.82;4.07;;;8.90;99.90;;;;;;5040261;28;20040;-85
2024/02/04 06:32:41;;;;;;;7.75;4.35;;;8.90;99.90;;;;;;5048280;28;20027;-86
2024/02/04 06:35:07;;;;;;;5.47;3.53;;;8.90;99.90;;;;;;5038762;28;20033;-85
2024/02/04 06:37:32;;;;;;;6.10;3.80;;;8.90;99.90;;;;;;5043246;28;20108;-86
2024/02/04 06:39:58;;;;;;;5.95;3.65;;;8.90;99.90;;;;;;5041292;28;20056;-86
2024/02/04 06:42:23;;;;;;;6.25;3.72;;;8.90;99.90;;;;;;5037793;28;20018;-84
2024/02/04 06:44:49;;;;;;;10.10;4.47;;;8.90;99.90;;;;;;5041474;28;20083;-85
2024/02/04 06:47:14;;;;;;;8.02;4.15;;;8.90;99.90;;;;;;5034093;28;20822;-85
2024/02/04 06:49:44;;;;;;;6.88;3.90;;;8.90;99.90;;;;;;5034213;28;20518;-86
2024/02/04 06:52:09;;;;;;;6.73;3.93;;;8.90;99.90;;;;;;5042237;28;20071;-86
2024/02/04 06:54:35;;;;;;;5.88;3.65;;;8.90;99.90;;;;;;5034840;28;20013;-86
2024/02/04 06:57:00;;;;;;;8.50;4.35;;;8.90;99.90;;;;;;5042574;28;20021;-85
2024/02/04 06:59:26;;;;;;;6.57;3.70;;;8.90;99.90;;;;;;5037979;28;20090;-85
2024/02/04 07:01:53;;;;;;;5.63;3.65;;;8.80;99.90;;;;;;5042939;28;20021;-85
2024/02/04 07:04:21;;;;;;;6.10;3.83;;;8.90;99.90;;;;;;5045862;28;20018;-88
2024/02/04 07:06:47;;;;;;;7.72;4.03;;;8.90;99.90;;;;;;5036246;28;20024;-85
2024/02/04 07:09:12;;;;;;;6.75;3.25;;;8.80;99.90;;;;;;5041640;28;20025;-86
2024/02/04 07:11:38;;;;;;;7.82;3.95;;;8.80;99.90;;;;;;5035083;28;20029;-86
2024/02/04 07:14:04;;;;;;;7.38;3.70;;;8.80;99.90;;;;;;5040884;28;20423;-86
2024/02/04 07:16:29;;;;;;;10.80;4.07;;;8.90;99.90;;;;;;5031170;28;20068;-85
2024/02/04 07:18:56;;;;;;;9.32;4.10;;;8.80;99.90;;;;;;5039353;28;20523;-85
2024/02/04 07:21:21;;;;;;;7.82;3.55;;;8.90;99.90;;;;;;5028440;28;20407;-86
2024/02/04 07:23:47;;;;;;;7.88;3.83;;;8.80;99.90;;;;;;5041409;28;20013;-85
2024/02/04 07:26:12;;;;;;;5.68;3.72;;;8.80;99.90;;;;;;5042662;28;20502;-85
2024/02/04 07:28:38;;;;;;;5.78;3.47;;;8.80;99.90;;;;;;5043718;28;20482;-84
2024/02/04 07:31:04;;;;;;;7.28;3.40;;;8.80;99.90;;;;;;5039532;28;20447;-86
2024/02/04 07:33:29;;;;;;;7.70;3.58;;;8.80;99.90;;;;;;5041271;28;20117;-86
2024/02/04 07:35:55;;;;;;;5.10;3.25;;;8.80;99.90;;;;;;5035971;28;20035;-85
2024/02/04 07:38:20;;;;;;;5.03;3.20;;;8.80;99.90;;;;;;5036360;28;20506;-85
2024/02/04 07:40:46;;;;;;;6.05;3.35;;;8.80;99.90;;;;;;5038161;28;20792;-85
2024/02/04 07:43:11;;;;;;;4.43;3.10;;;8.80;99.90;;;;;;5036335;28;20025;-86
2024/02/04 07:45:37;;;;;;;3.67;2.65;;;8.80;99.90;;;;;;5040062;28;20013;-85
2024/02/04 07:48:03;;;;;;;5.38;3.42;;;8.90;99.90;;;;;;5038028;28;20025;-85
2024/02/04 07:50:29;;;;;;;5.82;3.25;;;8.90;99.90;;;;;;5040329;28;20021;-85
2024/02/04 07:52:54;;;;;;;8.43;3.40;;;8.90;99.90;;;;;;5036888;28;20151;-85
2024/02/04 07:55:20;;;;;;;3.88;2.90;;;8.90;99.90;;;;;;5024111;28;20029;-86
2024/02/04 07:57:46;;;;;;;5.18;2.58;;;8.90;99.90;;;;;;5036252;28;20029;-86
2024/02/04 08:00:12;;;;;;;5.55;3.05;;;9.00;99.90;;;;;;5031859;28;20021;-86
2024/02/04 08:02:38;;;;;;;4.35;2.85;;;9.00;99.90;;;;;;5043914;28;20032;-85
2024/02/04 08:05:04;;;;;;;3.08;2.55;;;9.00;99.90;;;;;;5042289;28;20418;-85
2024/02/04 08:07:30;;;;;;;4.50;2.88;;;9.00;99.90;;;;;;5033033;28;20022;-86
2024/02/04 08:09:56;;;;;;;8.00;2.97;;;9.10;99.90;;;;;;5036299;28;20223;-85
2024/02/04 08:12:21;;;;;;;5.43;3.08;;;9.10;99.90;;;;;;5032738;28;20033;-86
2024/02/04 08:14:47;;;;;;;4.47;2.95;;;9.10;99.90;;;;;;5041735;28;20017;-86
2024/02/04 08:17:13;;;;;;;3.83;2.72;;;9.10;99.90;;;;;;5038555;28;20017;-86
2024/02/04 08:19:39;;;;;;;5.18;3.03;;;9.10;99.90;;;;;;5042401;28;20013;-86
2024/02/04 08:22:05;;;;;;;4.20;2.80;;;9.10;99.90;;;;;;5026615;28;20075;-86
2024/02/04 08:24:32;;;;;;;5.07;2.95;;;9.10;99.90;;;;;;5029860;28;20029;-85
2024/02/04 08:26:58;;;;;;;3.80;2.85;;;9.00;99.90;;;;;;5038754;28;20108;-86
2024/02/04 08:29:24;;;;;;;4.80;3.05;;;9.00;99.90;;;;;;5037710;28;20119;-85
2024/02/04 08:31:50;;;;;;;4.78;3.30;;;9.00;99.90;;;;;;5040739;28;20078;-86
2024/02/04 08:34:16;;;;;;;3.83;2.80;;;9.00;99.90;;;;;;5035037;28;20400;-86
2024/02/04 08:36:41;;;;;;;4.13;2.75;;;9.00;99.90;;;;;;5036425;28;20040;-85
2024/02/04 08:39:07;;;;;;;4.18;2.55;;;9.00;99.90;;;;;;5039262;28;20087;-85
2024/02/04 08:41:33;;;;;;;5.10;2.92;;;9.00;99.90;;;;;;5033185;28;20470;-86
2024/02/04 08:43:58;;;;;;;7.43;2.55;;;9.00;99.90;;;;;;5034611;28;20440;-87
2024/02/04 08:46:24;;;;;;;3.58;2.17;;;9.00;99.90;;;;;;5027444;28;20399;-86
2024/02/04 08:48:49;;;;;;;3.25;2.40;;;9.00;99.90;;;;;;5028261;28;20480;-87
2024/02/04 08:51:16;;;;;;;3.10;2.40;;;9.00;99.90;;;;;;5033034;28;20507;-86
2024/02/04 08:53:42;;;;;;;4.35;2.75;;;9.10;99.90;;;;;;5034032;28;20034;-87
2024/02/04 08:56:08;;;;;;;7.75;3.00;;;9.10;99.90;;;;;;5033549;28;20090;-86
2024/02/04 08:58:36;;;;;;;4.30;2.55;;;9.10;99.90;;;;;;5034415;28;20589;-88
2024/02/04 09:01:03;;;;;;;3.97;2.28;;;9.10;99.90;;;;;;5026745;28;20032;-86
2024/02/04 09:03:29;;;;;;;7.80;2.38;;;9.20;99.90;;;;;;5028378;28;20376;-85
2024/02/04 09:05:55;;;;;;;4.20;2.45;;;9.20;99.90;;;;;;5032201;28;20501;-87
2024/02/04 09:08:20;;;;;;;4.03;2.40;;;9.20;99.90;;;;;;5025897;28;20029;-87
2024/02/04 09:10:46;;;;;;;4.68;1.92;;;9.20;99.90;;;;;;5030761;28;20021;-86
2024/02/04 09:13:11;;;;;;;5.85;2.75;;;9.20;99.90;;;;;;5033660;28;20036;-86
2024/02/04 09:15:37;;;;;;;4.32;2.22;;;9.20;99.90;;;;;;5037378;28;20076;-85
2024/02/04 09:18:03;;;;;;;3.78;2.10;;;9.30;99.90;;;;;;5031992;28;20499;-85
2024/02/04 09:20:28;;;;;;;3.92;2.53;;;9.30;99.90;;;;;;5035617;28;20029;-86
2024/02/04 09:22:54;;;;;;;3.08;2.17;;;9.40;99.90;;;;;;5045395;28;20021;-85
2024/02/04 09:25:19;;;;;;;2.70;2.17;;;9.40;99.90;;;;;;5041609;28;20024;-86
2024/02/04 09:27:45;;;;;;;5.22;2.47;;;9.40;99.90;;;;;;5039443;28;20029;-85
2024/02/04 09:30:11;;;;;;;6.18;2.47;;;9.50;99.90;;;;;;5042549;28;20517;-86
2024/02/04 09:32:37;;;;;;;4.93;2.50;;;9.50;99.90;;;;;;5042141;28;20033;-86
2024/02/04 09:35:03;;;;;;;3.90;2.13;;;9.50;99.90;;;;;;5036631;28;20033;-86
2024/02/04 09:37:29;;;;;;;6.35;2.35;;;9.60;99.90;;;;;;5036356;28;20021;-85
2024/02/04 09:39:55;;;;;;;3.03;2.13;;;9.70;99.90;;;;;;5037837;28;20032;-86
2024/02/04 09:42:22;;;;;;;5.13;2.25;;;9.70;99.90;;;;;;5027959;28;20112;-86
2024/02/04 09:44:49;;;;;;;4.32;2.45;;;9.70;99.90;;;;;;5042032;28;20013;-86
2024/02/04 09:47:15;;;;;;;3.55;2.63;;;9.70;99.90;;;;;;5030896;28;20025;-87
2024/02/04 09:49:41;;;;;;;2.90;2.13;;;9.70;99.90;;;;;;5029700;28;20476;-86
2024/02/04 09:52:11;;;;;;;5.18;3.00;;;9.60;99.90;;;;;;5042839;28;20033;-85
2024/02/04 09:54:55;;;;;;;3.03;2.10;;;9.50;99.90;;;;;;5034927;28;20075;-87
2024/02/04 09:57:21;;;;;;;2.60;2.20;;;9.50;99.90;;;;;;5033862;28;20101;-86
2024/02/04 09:59:47;;;;;;;3.42;2.33;;;9.60;99.90;;;;;;5038507;28;20060;-87
2024/02/04 10:02:13;;;;;;;6.07;2.70;;;9.70;99.90;;;;;;5032873;28;20575;-87
2024/02/04 10:04:39;;;;;;;2.35;2.00;;;9.70;99.90;;;;;;5039662;28;20513;-86
2024/02/04 10:07:04;;;;;;;6.60;2.40;;;9.90;99.90;;;;;;5038003;28;20021;-86
2024/02/04 10:09:30;;;;;;;6.80;2.28;;;10.10;99.90;;;;;;5037525;28;20013;-85
2024/02/04 10:11:57;;;;;;;2.03;1.83;;;10.40;99.90;;;;;;5034806;28;20024;-86
2024/02/04 10:14:23;;;;;;;5.28;2.20;;;10.40;99.90;;;;;;5032286;28;20163;-87
2024/02/04 10:16:49;;;;;;;2.15;1.90;;;10.50;99.90;;;;;;5027882;28;20467;-86
2024/02/04 10:19:15;;;;;;;3.53;2.10;;;10.50;99.90;;;;;;5042021;28;20037;-87
2024/02/04 10:21:40;;;;;;;3.90;2.25;;;10.70;99.90;;;;;;5053094;28;20390;-86
2024/02/04 10:24:07;;;;;;;2.08;1.85;;;10.70;99.90;;;;;;5030186;28;20026;-88
2024/02/04 10:26:36;;;;;;;2.70;2.13;;;10.70;99.90;;;;;;5044063;28;20010;-86
2024/02/04 10:29:02;;;;;;;3.33;2.22;;;10.60;99.90;;;;;;5033103;28;20108;-86
2024/02/04 10:31:28;;;;;;;3.90;2.35;;;10.60;99.90;;;;;;5030633;28;20112;-85
2024/02/04 10:33:54;;;;;;;3.78;2.25;;;10.70;99.90;;;;;;5035475;28;20113;-86
2024/02/04 10:36:20;;;;;;;2.90;1.63;;;10.80;99.90;;;;;;5031862;28;20047;-87
2024/02/04 10:38:46;;;;;;;3.47;1.80;;;11.00;99.90;;;;;;5035555;28;20029;-86
2024/02/04 10:41:15;;;;;;;2.45;1.30;;;11.20;99.90;;;;;;5046136;28;20025;-89
2024/02/04 10:43:43;;;;;;;4.22;1.75;;;11.40;99.90;;;;;;5034271;28;20099;-86
2024/02/04 10:46:18;;;;;;;2.70;1.55;;;11.50;99.90;;;;;;5040994;28;20033;-85
2024/02/04 10:48:45;;;;;;;1.77;1.40;;;11.50;99.90;;;;;;5034194;28;20017;-86
2024/02/04 10:51:15;;;;;;;8.75;1.52;;;11.40;99.90;;;;;;5039158;28;20029;-85
2024/02/04 10:53:42;;;;;;;;;;;11.30;99.90;;;;;;5038496;28;20024;-86
2024/02/04 10:56:32;;;;;;;5.68;1.40;;;11.10;99.90;;;;;;5041545;28;19936;-87
2024/02/04 10:59:00;;;;;;;4.03;1.92;;;11.00;99.90;;;;;;5036151;28;20519;-85
2024/02/04 11:01:26;;;;;;;1.48;1.17;;;11.00;99.90;;;;;;5029944;28;20523;-86
2024/02/04 11:03:53;;;;;;;2.45;1.70;;;11.10;99.90;;;;;;5031556;28;20024;-87
2024/02/04 11:06:21;;;;;;;2.35;1.70;;;11.10;99.90;;;;;;5042377;28;20049;-87
2024/02/04 11:08:47;;;;;;;1.85;1.42;;;10.90;99.90;;;;;;5040962;28;20096;-86
2024/02/04 11:11:13;;;;;;;2.47;2.00;;;10.80;99.90;;;;;;5042840;28;20029;-86
2024/02/04 11:13:42;;;;;;;2.45;2.00;;;10.70;99.90;;;;;;5039153;28;20026;-88
2024/02/04 11:16:33;;;;;;;8.20;2.50;;;10.50;99.90;;;;;;5044366;28;20098;-87
2024/02/04 11:19:20;;;;;;;3.55;2.00;;;10.40;99.90;;;;;;5040424;28;20052;-88
2024/02/04 11:22:08;;;;;;;2.40;2.00;;;10.30;99.90;;;;;;5024695;28;20022;-86
2024/02/04 11:25:10;;;;;;;1.77;1.50;;;10.30;99.90;;;;;;5042971;28;20024;-86
2024/02/04 11:27:36;;;;;;;1.65;1.55;;;10.20;99.90;;;;;;5018683;28;20029;-85
2024/02/04 11:30:01;;;;;;;2.05;1.60;;;10.00;99.90;;;;;;5032171;28;20036;-85
2024/02/04 11:32:28;;;;;;;3.38;2.05;;;9.90;99.90;;;;;;5026743;28;20037;-85
2024/02/04 11:35:01;;;;;;;1.55;1.45;;;9.80;99.90;;;;;;5038311;28;20508;-85
2024/02/04 11:37:27;;;;;;;3.70;1.55;;;9.80;99.90;;;;;;5040110;28;20025;-85
2024/02/04 11:39:53;;;;;;;6.85;2.05;;;9.90;99.90;;;;;;5032043;28;20017;-85
2024/02/04 11:42:22;;;;;;;5.80;1.92;;;10.00;99.90;;;;;;5039793;28;20106;-85
2024/02/04 11:44:48;;;;;;;5.03;2.35;;;10.00;99.90;;;;;;5033085;28;20086;-86
2024/02/04 11:47:24;;;;;;;4.75;2.30;;;9.90;99.90;;;;;;5023392;28;20491;-86
2024/02/04 11:49:57;;;;;;;5.50;2.30;;;10.00;99.90;;;;;;5034588;28;20018;-86
2024/02/04 11:52:23;;;;;;;5.30;2.50;;;10.20;99.90;;;;;;5023029;28;20083;-85
2024/02/04 11:54:49;;;;;;;6.38;2.30;;;10.40;99.90;;;;;;5036261;28;20025;-85
2024/02/04 11:57:15;;;;;;;10.18;2.47;;;10.60;99.90;;;;;;5039323;28;20033;-85
2024/02/04 11:59:43;;;;;;;14.85;2.00;;;10.60;99.90;;;;;;5029167;28;20033;-85
2024/02/04 12:02:09;;;;;;;5.28;1.80;;;10.60;99.90;;;;;;5037923;28;20056;-86
2024/02/04 12:04:35;;;;;;;12.95;2.22;;;10.40;99.90;;;;;;5032654;28;20025;-85
2024/02/04 12:07:02;;;;;;;5.07;1.50;;;10.30;99.90;;;;;;5036592;28;20561;-86
2024/02/04 12:09:28;;;;;;;2.42;1.55;;;10.10;99.90;;;;;;5031398;28;20562;-86
2024/02/04 12:11:54;;;;;;;5.38;1.42;;;10.00;99.90;;;;;;5043480;28;20033;-87
2024/02/04 12:14:21;;;;;;;3.10;1.70;;;9.90;99.90;;;;;;5035760;28;20032;-88
2024/02/04 12:16:47;;;;;;;2.35;1.45;;;9.90;99.90;;;;;;5029995;28;20428;-85
2024/02/04 12:19:12;;;;;;;6.43;1.20;;;9.80;99.90;;;;;;5035926;28;20029;-86
2024/02/04 12:21:38;;;;;;;4.45;1.65;;;9.70;99.90;;;;;;5036576;28;20022;-85
2024/02/04 12:24:04;;;;;;;18.55;2.38;;;9.70;99.90;;;;;;5037075;28;20025;-85
2024/02/04 12:26:30;;;;;;;16.42;2.40;;;9.70;99.90;;;;;;5039463;28;20021;-85
2024/02/04 12:28:56;;;;;;;22.05;1.90;;;9.70;99.90;;;;;;5041715;28;20035;-85
2024/02/04 12:31:31;;;;;;;20.38;1.67;;;9.70;99.90;;;;;;5040428;28;20479;-86
2024/02/04 12:33:59;;;;;;;10.50;2.00;;;9.70;99.90;;;;;;5040900;28;20029;-85
2024/02/04 12:36:30;;;;;;;4.18;1.60;;;9.80;99.90;;;;;;5036481;28;20033;-86
2024/02/04 12:39:00;;;;;;;6.68;1.30;;;9.80;99.90;;;;;;5038419;28;20388;-85
2024/02/04 12:41:27;;;;;;;7.90;1.98;;;9.80;99.90;;;;;;5031246;28;20029;-86
2024/02/04 12:43:58;;;;;;;2.53;1.15;;;9.80;99.90;;;;;;5041177;28;20014;-85
2024/02/04 12:46:23;;;;;;;;;;;9.90;99.90;;;;;;5036015;28;20154;-84
2024/02/04 12:48:56;;;;;;;11.32;1.60;;;9.80;99.90;;;;;;5036571;28;19999;-85
2024/02/04 12:51:30;;;;;;;1.27;1.10;;;9.80;99.90;;;;;;5039740;28;20021;-85
2024/02/04 12:54:19;;;;;;;2.40;1.40;;;9.80;99.90;;;;;;5025830;28;20029;-85